createdAt,value
2017-01-11T00:00:06.662Z,0
2017-01-11T00:01:06.638Z,0
2017-01-11T00:02:06.616Z,0
2017-01-11T00:03:06.601Z,0
2017-01-11T00:04:06.577Z,0
2017-01-11T00:05:06.557Z,0
2017-01-11T00:06:06.532Z,0
2017-01-11T00:07:06.507Z,0
2017-01-11T00:08:06.490Z,0
2017-01-11T00:09:06.471Z,0
2017-01-11T00:10:06.445Z,0
2017-01-11T00:11:06.432Z,0
2017-01-11T00:12:06.406Z,0
2017-01-11T00:13:06.388Z,0
2017-01-11T00:14:06.366Z,0
2017-01-11T00:15:06.344Z,0
2017-01-11T00:16:06.325Z,0
2017-01-11T00:17:06.304Z,0
2017-01-11T00:18:06.290Z,0
2017-01-11T00:19:06.262Z,0
2017-01-11T00:20:06.243Z,0
2017-01-11T00:21:06.223Z,0
2017-01-11T00:22:06.200Z,0
2017-01-11T00:23:06.173Z,0
2017-01-11T00:24:06.157Z,0
2017-01-11T00:25:06.136Z,0
2017-01-11T00:26:06.117Z,0
2017-01-11T00:27:06.103Z,0
2017-01-11T00:28:06.073Z,0
2017-01-11T00:29:06.054Z,0
2017-01-11T00:30:06.029Z,0
2017-01-11T00:31:06.011Z,0
2017-01-11T00:32:05.988Z,0
2017-01-11T00:33:05.977Z,0
2017-01-11T00:34:05.950Z,0
2017-01-11T00:35:05.929Z,0
2017-01-11T00:36:05.906Z,0
2017-01-11T00:37:05.887Z,0
2017-01-11T00:38:05.866Z,0
2017-01-11T00:39:05.845Z,0
2017-01-11T00:40:05.823Z,0
2017-01-11T00:41:05.800Z,0
2017-01-11T00:42:05.782Z,0
2017-01-11T00:43:05.763Z,0
2017-01-11T00:44:05.737Z,0
2017-01-11T00:45:05.717Z,0
2017-01-11T00:46:05.704Z,0
2017-01-11T00:47:05.678Z,0
2017-01-11T00:48:05.653Z,0
2017-01-11T00:49:05.668Z,0
2017-01-11T00:50:05.615Z,0
2017-01-11T00:51:05.597Z,0
2017-01-11T00:52:05.572Z,0
2017-01-11T00:53:05.551Z,0
2017-01-11T00:54:05.529Z,0
2017-01-11T00:55:05.509Z,0
2017-01-11T00:56:05.484Z,0
2017-01-11T00:57:05.463Z,0
2017-01-11T00:58:05.454Z,0
2017-01-11T00:59:05.427Z,0
2017-01-11T01:00:05.404Z,0
2017-01-11T01:01:05.382Z,0
2017-01-11T01:02:05.362Z,0
2017-01-11T01:03:05.741Z,0
2017-01-11T01:04:05.324Z,0
2017-01-11T01:05:05.297Z,0
2017-01-11T01:06:05.281Z,0
2017-01-11T01:07:05.267Z,0
2017-01-11T01:08:05.244Z,0
2017-01-11T01:09:05.215Z,0
2017-01-11T01:10:05.195Z,0
2017-01-11T01:11:05.174Z,0
2017-01-11T01:12:05.152Z,0
2017-01-11T01:13:05.135Z,0
2017-01-11T01:14:05.116Z,0
2017-01-11T01:15:05.087Z,0
2017-01-11T01:16:05.066Z,0
2017-01-11T01:17:05.053Z,0
2017-01-11T01:18:05.028Z,0
2017-01-11T01:19:05.010Z,0
2017-01-11T01:20:04.986Z,0
2017-01-11T01:21:04.965Z,0
2017-01-11T01:22:04.938Z,0
2017-01-11T01:23:05.317Z,0
2017-01-11T01:24:04.898Z,0
2017-01-11T01:25:04.884Z,0
2017-01-11T01:26:04.862Z,0
2017-01-11T01:27:04.837Z,0
2017-01-11T01:28:04.819Z,0
2017-01-11T01:29:04.797Z,0
2017-01-11T01:30:04.778Z,0
2017-01-11T01:31:04.754Z,0
2017-01-11T01:32:04.737Z,0
2017-01-11T01:33:04.713Z,0
2017-01-11T01:34:04.704Z,0
2017-01-11T01:35:04.667Z,0
2017-01-11T01:36:04.648Z,0
2017-01-11T01:37:04.633Z,0
2017-01-11T01:38:04.607Z,0
2017-01-11T01:39:04.588Z,0
2017-01-11T01:40:04.561Z,0
2017-01-11T01:41:04.544Z,0
2017-01-11T01:42:04.523Z,0
2017-01-11T01:43:04.497Z,0
2017-01-11T01:44:04.478Z,0
2017-01-11T01:45:04.458Z,0
2017-01-11T01:46:04.440Z,0
2017-01-11T01:47:04.420Z,0
2017-01-11T01:48:04.396Z,0
2017-01-11T01:49:04.382Z,0
2017-01-11T01:50:04.352Z,0
2017-01-11T01:51:04.332Z,0
2017-01-11T01:52:04.311Z,0
2017-01-11T01:53:04.294Z,0
2017-01-11T01:54:04.271Z,0
2017-01-11T01:55:04.252Z,0
2017-01-11T01:56:04.230Z,0
2017-01-11T01:57:04.212Z,0
2017-01-11T01:58:04.585Z,0
2017-01-11T01:59:04.165Z,0
2017-01-11T02:00:04.146Z,0
2017-01-11T02:01:04.125Z,0
2017-01-11T02:02:04.103Z,0
2017-01-11T02:03:04.078Z,0
2017-01-11T02:04:04.060Z,0
2017-01-11T02:05:04.868Z,0
2017-01-11T02:06:04.015Z,0
2017-01-11T02:07:03.998Z,0
2017-01-11T02:08:03.976Z,0
2017-01-11T02:09:03.984Z,0
2017-01-11T02:10:03.928Z,0
2017-01-11T02:11:03.913Z,0
2017-01-11T02:12:10.982Z,0
2017-01-11T02:13:03.864Z,0
2017-01-11T02:14:03.842Z,0
2017-01-11T02:15:03.823Z,0
2017-01-11T02:16:03.799Z,0
2017-01-11T02:17:03.779Z,0
2017-01-11T02:18:03.778Z,0
2017-01-11T02:19:03.747Z,0
2017-01-11T02:20:03.717Z,0
2017-01-11T02:21:03.695Z,0
2017-01-11T02:22:03.673Z,0
2017-01-11T02:23:03.653Z,0
2017-01-11T02:24:03.629Z,0
2017-01-11T02:25:03.605Z,0
2017-01-11T02:26:03.596Z,0
2017-01-11T02:27:03.565Z,0
2017-01-11T02:28:03.544Z,0
2017-01-11T02:29:03.530Z,0
2017-01-11T02:30:03.507Z,0
2017-01-11T02:31:03.480Z,0
2017-01-11T02:32:03.464Z,0
2017-01-11T02:33:03.436Z,0
2017-01-11T02:34:03.416Z,0
2017-01-11T02:35:03.431Z,0
2017-01-11T02:36:03.374Z,0
2017-01-11T02:37:03.353Z,0
2017-01-11T02:38:03.326Z,0
2017-01-11T02:39:03.710Z,0
2017-01-11T02:40:03.317Z,0
2017-01-11T02:41:03.371Z,0
2017-01-11T02:42:03.253Z,0
2017-01-11T02:43:03.222Z,0
2017-01-11T02:44:03.205Z,0
2017-01-11T02:45:03.179Z,0
2017-01-11T02:46:03.172Z,0
2017-01-11T02:47:03.175Z,0
2017-01-11T02:48:03.119Z,0
2017-01-11T02:49:03.101Z,0
2017-01-11T02:50:03.075Z,0
2017-01-11T02:51:03.054Z,0
2017-01-11T02:52:03.030Z,0
2017-01-11T02:53:03.015Z,0
2017-01-11T02:54:02.991Z,0
2017-01-11T02:55:02.976Z,0
2017-01-11T02:56:02.944Z,0
2017-01-11T02:57:02.936Z,0
2017-01-11T02:58:02.902Z,0
2017-01-11T02:59:02.896Z,0
2017-01-11T03:00:02.886Z,0
2017-01-11T03:01:02.845Z,0
2017-01-11T03:02:02.821Z,0
2017-01-11T03:03:02.800Z,0
2017-01-11T03:04:02.778Z,0
2017-01-11T03:05:02.753Z,0
2017-01-11T03:06:02.735Z,0
2017-01-11T03:07:02.712Z,0
2017-01-11T03:08:02.689Z,0
2017-01-11T03:09:02.672Z,0
2017-01-11T03:10:02.668Z,0
2017-01-11T03:11:02.627Z,0
2017-01-11T03:12:02.601Z,0
2017-01-11T03:13:02.588Z,0
2017-01-11T03:14:02.560Z,0
2017-01-11T03:15:02.536Z,0
2017-01-11T03:16:02.520Z,0
2017-01-11T03:17:02.500Z,0
2017-01-11T03:18:02.476Z,0
2017-01-11T03:19:02.455Z,0
2017-01-11T03:20:02.433Z,0
2017-01-11T03:21:02.409Z,0
2017-01-11T03:22:02.389Z,0
2017-01-11T03:23:02.367Z,0
2017-01-11T03:24:02.352Z,0
2017-01-11T03:25:02.324Z,0
2017-01-11T03:26:02.301Z,0
2017-01-11T03:27:02.283Z,0
2017-01-11T03:28:02.262Z,0
2017-01-11T03:29:02.238Z,0
2017-01-11T03:30:02.222Z,0
2017-01-11T03:31:02.198Z,0
2017-01-11T03:32:02.175Z,0
2017-01-11T03:33:02.154Z,0
2017-01-11T03:34:02.134Z,0
2017-01-11T03:35:02.109Z,0
2017-01-11T03:36:02.085Z,0
2017-01-11T03:37:02.068Z,0
2017-01-11T03:38:02.052Z,0
2017-01-11T03:39:02.057Z,0
2017-01-11T03:40:02.005Z,0
2017-01-11T03:41:01.979Z,0
2017-01-11T03:42:01.957Z,0
2017-01-11T03:43:01.939Z,0
2017-01-11T03:44:01.922Z,0
2017-01-11T03:45:01.897Z,0
2017-01-11T03:46:01.874Z,0
2017-01-11T03:47:01.847Z,0
2017-01-11T03:48:01.829Z,0
2017-01-11T03:49:01.837Z,0
2017-01-11T03:50:01.786Z,0
2017-01-11T03:51:01.762Z,0
2017-01-11T03:52:01.747Z,0
2017-01-11T03:53:01.728Z,0
2017-01-11T03:54:01.701Z,0
2017-01-11T03:55:01.680Z,0
2017-01-11T03:56:01.687Z,0
2017-01-11T03:57:01.668Z,0
2017-01-11T03:58:01.611Z,0
2017-01-11T03:59:01.592Z,0
2017-01-11T04:00:01.570Z,0
2017-01-11T04:01:01.551Z,0
2017-01-11T04:02:01.524Z,0
2017-01-11T04:03:01.508Z,0
2017-01-11T04:04:01.483Z,0
2017-01-11T04:05:01.465Z,0
2017-01-11T04:06:01.439Z,0
2017-01-11T04:07:01.423Z,0
2017-01-11T04:08:01.791Z,0
2017-01-11T04:09:01.379Z,0
2017-01-11T04:10:01.355Z,0
2017-01-11T04:11:01.333Z,0
2017-01-11T04:12:01.309Z,0
2017-01-11T04:13:01.311Z,0
2017-01-11T04:14:01.265Z,0
2017-01-11T04:15:01.276Z,0
2017-01-11T04:16:01.222Z,0
2017-01-11T04:17:01.204Z,0
2017-01-11T04:18:01.206Z,0
2017-01-11T04:19:01.159Z,0
2017-01-11T04:20:01.134Z,0
2017-01-11T04:21:01.124Z,0
2017-01-11T04:22:01.091Z,0
2017-01-11T04:23:01.073Z,0
2017-01-11T04:24:01.049Z,0
2017-01-11T04:25:01.029Z,0
2017-01-11T04:26:01.012Z,0
2017-01-11T04:27:00.979Z,0
2017-01-11T04:28:00.969Z,0
2017-01-11T04:29:00.939Z,0
2017-01-11T04:30:00.920Z,0
2017-01-11T04:31:00.890Z,0
2017-01-11T04:32:00.880Z,0
2017-01-11T04:33:00.860Z,0
2017-01-11T04:34:00.834Z,0
2017-01-11T04:35:00.811Z,0
2017-01-11T04:36:00.785Z,0
2017-01-11T04:37:00.770Z,0
2017-01-11T04:38:00.765Z,0
2017-01-11T04:39:00.725Z,0
2017-01-11T04:40:00.702Z,0
2017-01-11T04:41:00.682Z,0
2017-01-11T04:42:00.652Z,0
2017-01-11T04:43:00.633Z,0
2017-01-11T04:44:00.616Z,0
2017-01-11T04:45:00.590Z,0
2017-01-11T04:46:00.580Z,0
2017-01-11T04:47:00.545Z,0
2017-01-11T04:48:00.529Z,0
2017-01-11T04:49:00.495Z,0
2017-01-11T04:50:00.511Z,0
2017-01-11T04:51:00.458Z,0
2017-01-11T04:52:00.437Z,0
2017-01-11T04:53:00.415Z,0
2017-01-11T04:54:00.392Z,0
2017-01-11T04:55:00.374Z,0
2017-01-11T04:56:00.349Z,0
2017-01-11T04:57:00.328Z,0
2017-01-11T04:58:00.334Z,0
2017-01-11T04:59:00.311Z,0
2017-01-11T05:00:00.291Z,0
2017-01-11T05:01:00.268Z,0
2017-01-11T05:02:00.244Z,0
2017-01-11T05:03:00.224Z,0
2017-01-11T05:04:00.206Z,0
2017-01-11T05:05:00.177Z,0
2017-01-11T05:06:00.168Z,0
2017-01-11T05:07:00.137Z,0
2017-01-11T05:08:00.118Z,0
2017-01-11T05:09:00.094Z,0
2017-01-11T05:10:00.074Z,0
2017-01-11T05:11:00.052Z,0
2017-01-11T05:12:00.030Z,0
2017-01-11T05:13:00.008Z,0
2017-01-11T05:14:00.013Z,0
2017-01-11T05:14:59.963Z,0
2017-01-11T05:15:59.943Z,0
2017-01-11T05:16:59.918Z,0
2017-01-11T05:17:59.893Z,0
2017-01-11T05:18:59.878Z,0
2017-01-11T05:19:59.856Z,0
2017-01-11T05:20:59.835Z,0
2017-01-11T05:21:59.808Z,0
2017-01-11T05:22:59.788Z,0
2017-01-11T05:23:59.767Z,0
2017-01-11T05:24:59.748Z,0
2017-01-11T05:25:59.724Z,0
2017-01-11T05:26:59.700Z,0
2017-01-11T05:27:59.679Z,0
2017-01-11T05:28:59.752Z,0
2017-01-11T05:29:59.635Z,0
2017-01-11T05:30:59.611Z,0
2017-01-11T05:31:59.616Z,0
2017-01-11T05:32:59.566Z,0
2017-01-11T05:33:59.543Z,0
2017-01-11T05:34:59.522Z,0
2017-01-11T05:35:59.501Z,0
2017-01-11T05:36:59.478Z,0
2017-01-11T05:37:59.477Z,0
2017-01-11T05:38:59.438Z,0
2017-01-11T05:39:59.411Z,0
2017-01-11T05:40:59.390Z,0
2017-01-11T05:41:59.372Z,0
2017-01-11T05:42:59.745Z,0
2017-01-11T05:43:59.325Z,0
2017-01-11T05:44:59.318Z,0
2017-01-11T05:45:59.284Z,0
2017-01-11T05:46:59.264Z,0
2017-01-11T05:47:59.238Z,0
2017-01-11T05:48:59.216Z,0
2017-01-11T05:49:59.190Z,0
2017-01-11T05:50:59.175Z,0
2017-01-11T05:51:59.153Z,0
2017-01-11T05:52:59.126Z,0
2017-01-11T05:53:59.108Z,0
2017-01-11T05:54:59.083Z,0
2017-01-11T05:55:59.060Z,0
2017-01-11T05:56:59.041Z,0
2017-01-11T05:57:59.021Z,0
2017-01-11T05:58:58.993Z,0
2017-01-11T05:59:58.976Z,0
2017-01-11T06:00:58.957Z,0
2017-01-11T06:01:58.932Z,0
2017-01-11T06:02:58.912Z,0
2017-01-11T06:03:58.889Z,0
2017-01-11T06:04:58.863Z,0
2017-01-11T06:05:58.845Z,0
2017-01-11T06:06:58.820Z,0
2017-01-11T06:07:58.797Z,0
2017-01-11T06:08:58.774Z,0
2017-01-11T06:09:58.753Z,0
2017-01-11T06:10:58.733Z,0
2017-01-11T06:11:58.734Z,0
2017-01-11T06:12:58.692Z,0
2017-01-11T06:13:58.668Z,0
2017-01-11T06:14:58.660Z,0
2017-01-11T06:15:58.634Z,0
2017-01-11T06:16:58.602Z,0
2017-01-11T06:17:58.581Z,0
2017-01-11T06:18:58.557Z,0
2017-01-11T06:19:58.941Z,0
2017-01-11T06:20:58.514Z,0
2017-01-11T06:21:58.894Z,0
2017-01-11T06:22:58.474Z,0
2017-01-11T06:23:58.449Z,0
2017-01-11T06:24:58.432Z,0
2017-01-11T06:25:58.409Z,0
2017-01-11T06:26:58.383Z,0
2017-01-11T06:27:58.362Z,0
2017-01-11T06:28:58.344Z,0
2017-01-11T06:29:58.318Z,0
2017-01-11T06:30:58.297Z,0
2017-01-11T06:31:58.277Z,0
2017-01-11T06:32:58.253Z,0
2017-01-11T06:33:58.230Z,0
2017-01-11T06:34:58.207Z,0
2017-01-11T06:35:58.188Z,0
2017-01-11T06:36:58.164Z,0
2017-01-11T06:37:58.142Z,0
2017-01-11T06:38:58.120Z,0
2017-01-11T06:39:58.096Z,0
2017-01-11T06:40:58.080Z,0
2017-01-11T06:41:58.055Z,0
2017-01-11T06:42:58.036Z,0
2017-01-11T06:43:58.009Z,0
2017-01-11T06:44:57.990Z,0
2017-01-11T06:45:57.970Z,0
2017-01-11T06:46:57.948Z,0
2017-01-11T06:47:57.920Z,0
2017-01-11T06:48:57.900Z,0
2017-01-11T06:49:57.889Z,0
2017-01-11T06:50:57.859Z,0
2017-01-11T06:51:57.849Z,0
2017-01-11T06:52:57.813Z,0
2017-01-11T06:53:57.793Z,0
2017-01-11T06:54:57.785Z,0
2017-01-11T06:55:57.748Z,0
2017-01-11T06:56:57.728Z,0
2017-01-11T06:57:57.709Z,0
2017-01-11T06:58:57.685Z,0
2017-01-11T06:59:57.661Z,0
2017-01-11T07:00:57.646Z,0
2017-01-11T07:01:57.644Z,5
2017-01-11T07:02:57.601Z,5
2017-01-11T07:03:57.577Z,5
2017-01-11T07:04:57.556Z,5
2017-01-11T07:05:57.534Z,5
2017-01-11T07:06:57.512Z,5
2017-01-11T07:07:57.496Z,5
2017-01-11T07:08:57.467Z,5
2017-01-11T07:09:57.444Z,5
2017-01-11T07:10:57.822Z,5
2017-01-11T07:11:57.403Z,10
2017-01-11T07:12:57.380Z,10
2017-01-11T07:13:57.357Z,10
2017-01-11T07:14:57.340Z,10
2017-01-11T07:15:57.313Z,10
2017-01-11T07:16:57.295Z,10
2017-01-11T07:17:57.272Z,10
2017-01-11T07:18:57.251Z,15
2017-01-11T07:19:57.631Z,15
2017-01-11T07:20:57.207Z,15
2017-01-11T07:21:57.216Z,15
2017-01-11T07:22:57.172Z,15
2017-01-11T07:23:57.145Z,20
2017-01-11T07:24:57.122Z,20
2017-01-11T07:25:57.098Z,20
2017-01-11T07:26:57.080Z,20
2017-01-11T07:27:57.051Z,25
2017-01-11T07:28:57.029Z,25
2017-01-11T07:29:57.040Z,25
2017-01-11T07:30:57.000Z,30
2017-01-11T07:31:56.970Z,30
2017-01-11T07:32:56.943Z,30
2017-01-11T07:33:56.928Z,30
2017-01-11T07:34:56.903Z,30
2017-01-11T07:35:56.904Z,30
2017-01-11T07:36:56.859Z,30
2017-01-11T07:37:56.837Z,30
2017-01-11T07:38:56.818Z,30
2017-01-11T07:39:56.796Z,30
2017-01-11T07:40:57.172Z,30
2017-01-11T07:41:56.755Z,30
2017-01-11T07:42:56.731Z,30
2017-01-11T07:43:56.710Z,30
2017-01-11T07:44:57.084Z,35
2017-01-11T07:45:56.666Z,35
2017-01-11T07:46:56.639Z,35
2017-01-11T07:47:56.624Z,35
2017-01-11T07:48:56.605Z,35
2017-01-11T07:49:56.582Z,40
2017-01-11T07:50:56.560Z,40
2017-01-11T07:51:56.536Z,40
2017-01-11T07:52:56.515Z,45
2017-01-11T07:53:56.495Z,45
2017-01-11T07:54:56.474Z,50
2017-01-11T07:55:56.460Z,50
2017-01-11T07:56:56.430Z,55
2017-01-11T07:57:56.411Z,60
2017-01-11T07:58:56.394Z,65
2017-01-11T07:59:56.368Z,65
2017-01-11T08:00:56.385Z,65
2017-01-11T08:01:56.353Z,70
2017-01-11T08:02:56.304Z,70
2017-01-11T08:03:56.279Z,70
2017-01-11T08:04:56.258Z,70
2017-01-11T08:05:56.238Z,65
2017-01-11T08:06:56.218Z,65
2017-01-11T08:07:56.195Z,65
2017-01-11T08:08:56.172Z,70
2017-01-11T08:09:56.154Z,75
2017-01-11T08:10:56.131Z,75
2017-01-11T08:11:56.114Z,75
2017-01-11T08:12:56.088Z,80
2017-01-11T08:13:56.073Z,75
2017-01-11T08:14:56.047Z,75
2017-01-11T08:15:56.026Z,75
2017-01-11T08:16:56.005Z,75
2017-01-11T08:17:55.987Z,80
2017-01-11T08:18:55.962Z,80
2017-01-11T08:19:55.937Z,80
2017-01-11T08:20:55.919Z,80
2017-01-11T08:21:55.897Z,85
2017-01-11T08:22:55.874Z,85
2017-01-11T08:23:55.853Z,90
2017-01-11T08:24:55.838Z,95
2017-01-11T08:25:55.816Z,95
2017-01-11T08:26:55.792Z,90
2017-01-11T08:27:55.771Z,90
2017-01-11T08:28:55.757Z,90
2017-01-11T08:29:55.734Z,90
2017-01-11T08:30:55.711Z,90
2017-01-11T08:31:55.687Z,90
2017-01-11T08:32:55.679Z,85
2017-01-11T08:33:55.647Z,85
2017-01-11T08:34:56.021Z,90
2017-01-11T08:35:55.605Z,90
2017-01-11T08:36:55.591Z,95
2017-01-11T08:37:55.558Z,95
2017-01-11T08:38:55.540Z,95
2017-01-11T08:39:55.517Z,100
2017-01-11T08:40:55.506Z,100
2017-01-11T08:41:55.487Z,100
2017-01-11T08:42:55.455Z,100
2017-01-11T08:43:55.435Z,100
2017-01-11T08:44:55.414Z,105
2017-01-11T08:45:55.395Z,110
2017-01-11T08:46:55.368Z,115
2017-01-11T08:47:55.354Z,115
2017-01-11T08:48:55.329Z,115
2017-01-11T08:49:55.312Z,120
2017-01-11T08:50:55.292Z,120
2017-01-11T08:51:55.270Z,120
2017-01-11T08:52:55.247Z,120
2017-01-11T08:53:55.234Z,120
2017-01-11T08:54:55.205Z,120
2017-01-11T08:55:55.189Z,120
2017-01-11T08:56:55.160Z,120
2017-01-11T08:57:55.141Z,125
2017-01-11T08:58:55.123Z,125
2017-01-11T08:59:55.100Z,130
2017-01-11T09:00:55.082Z,130
2017-01-11T09:01:55.060Z,130
2017-01-11T09:02:55.040Z,135
2017-01-11T09:03:55.018Z,135
2017-01-11T09:04:54.999Z,135
2017-01-11T09:05:54.980Z,135
2017-01-11T09:06:54.953Z,130
2017-01-11T09:07:54.935Z,125
2017-01-11T09:08:54.945Z,120
2017-01-11T09:09:54.898Z,125
2017-01-11T09:10:54.924Z,125
2017-01-11T09:11:54.854Z,120
2017-01-11T09:12:54.837Z,125
2017-01-11T09:13:54.811Z,125
2017-01-11T09:14:54.790Z,130
2017-01-11T09:15:54.782Z,135
2017-01-11T09:16:54.751Z,135
2017-01-11T09:17:54.739Z,135
2017-01-11T09:18:54.733Z,135
2017-01-11T09:19:54.722Z,135
2017-01-11T09:20:54.670Z,140
2017-01-11T09:21:54.645Z,145
2017-01-11T09:22:54.633Z,150
2017-01-11T09:23:54.614Z,155
2017-01-11T09:24:54.593Z,150
2017-01-11T09:25:54.570Z,155
2017-01-11T09:26:54.550Z,155
2017-01-11T09:27:54.528Z,155
2017-01-11T09:28:54.501Z,155
2017-01-11T09:29:54.485Z,160
2017-01-11T09:30:54.462Z,160
2017-01-11T09:31:54.457Z,160
2017-01-11T09:32:54.426Z,160
2017-01-11T09:33:54.804Z,160
2017-01-11T09:34:54.385Z,165
2017-01-11T09:35:54.366Z,170
2017-01-11T09:36:54.344Z,175
2017-01-11T09:37:54.326Z,180
2017-01-11T09:38:54.303Z,175
2017-01-11T09:39:54.288Z,165
2017-01-11T09:40:54.264Z,165
2017-01-11T09:41:54.242Z,175
2017-01-11T09:42:54.619Z,180
2017-01-11T09:43:54.208Z,180
2017-01-11T09:44:54.181Z,180
2017-01-11T09:45:54.166Z,190
2017-01-11T09:46:54.150Z,190
2017-01-11T09:47:54.127Z,185
2017-01-11T09:48:54.109Z,185
2017-01-11T09:49:54.083Z,180
2017-01-11T09:50:54.076Z,175
2017-01-11T09:51:54.045Z,185
2017-01-11T09:52:54.026Z,185
2017-01-11T09:53:54.011Z,180
2017-01-11T09:54:54.388Z,180
2017-01-11T09:55:53.996Z,185
2017-01-11T09:56:53.948Z,185
2017-01-11T09:57:53.931Z,190
2017-01-11T09:58:53.908Z,200
2017-01-11T09:59:53.893Z,200
2017-01-11T10:00:53.868Z,210
2017-01-11T10:01:53.852Z,220
2017-01-11T10:02:53.834Z,225
2017-01-11T10:03:53.810Z,230
2017-01-11T10:04:53.792Z,235
2017-01-11T10:05:53.777Z,240
2017-01-11T10:06:53.762Z,250
2017-01-11T10:07:53.729Z,255
2017-01-11T10:08:53.712Z,260
2017-01-11T10:09:53.691Z,270
2017-01-11T10:10:53.671Z,280
2017-01-11T10:11:53.652Z,280
2017-01-11T10:12:53.638Z,275
2017-01-11T10:13:53.613Z,290
2017-01-11T10:14:53.622Z,300
2017-01-11T10:15:53.572Z,295
2017-01-11T10:16:53.559Z,310
2017-01-11T10:17:53.939Z,285
2017-01-11T10:18:53.514Z,290
2017-01-11T10:19:53.500Z,285
2017-01-11T10:20:53.480Z,265
2017-01-11T10:21:53.459Z,245
2017-01-11T10:22:53.440Z,230
2017-01-11T10:23:53.420Z,210
2017-01-11T10:24:53.405Z,195
2017-01-11T10:25:53.383Z,185
2017-01-11T10:26:53.363Z,180
2017-01-11T10:27:53.346Z,170
2017-01-11T10:28:53.327Z,170
2017-01-11T10:29:53.309Z,170
2017-01-11T10:30:53.293Z,165
2017-01-11T10:31:53.266Z,165
2017-01-11T10:32:53.254Z,160
2017-01-11T10:33:53.229Z,155
2017-01-11T10:34:53.212Z,150
2017-01-11T10:35:53.195Z,140
2017-01-11T10:36:53.177Z,135
2017-01-11T10:37:53.161Z,135
2017-01-11T10:38:53.138Z,140
2017-01-11T10:39:53.117Z,145
2017-01-11T10:40:53.098Z,145
2017-01-11T10:41:53.083Z,170
2017-01-11T10:42:53.059Z,190
2017-01-11T10:43:53.043Z,170
2017-01-11T10:44:53.023Z,185
2017-01-11T10:45:53.000Z,190
2017-01-11T10:46:53.011Z,185
2017-01-11T10:47:53.361Z,180
2017-01-11T10:48:52.951Z,170
2017-01-11T10:49:52.921Z,160
2017-01-11T10:50:52.930Z,160
2017-01-11T10:51:52.884Z,150
2017-01-11T10:52:52.865Z,150
2017-01-11T10:53:52.847Z,150
2017-01-11T10:54:52.829Z,160
2017-01-11T10:55:52.817Z,155
2017-01-11T10:56:52.785Z,170
2017-01-11T10:57:52.771Z,180
2017-01-11T10:58:52.754Z,170
2017-01-11T10:59:52.732Z,165
2017-01-11T11:00:52.711Z,175
2017-01-11T11:01:52.698Z,160
2017-01-11T11:02:52.679Z,120
2017-01-11T11:03:52.657Z,115
2017-01-11T11:04:52.637Z,105
2017-01-11T11:05:52.616Z,115
2017-01-11T11:06:52.598Z,120
2017-01-11T11:07:52.580Z,120
2017-01-11T11:08:52.560Z,165
2017-01-11T11:09:52.539Z,145
2017-01-11T11:10:52.521Z,155
2017-01-11T11:11:52.504Z,215
2017-01-11T11:12:52.483Z,165
2017-01-11T11:13:52.488Z,190
2017-01-11T11:14:52.447Z,180
2017-01-11T11:15:52.439Z,170
2017-01-11T11:16:52.401Z,170
2017-01-11T11:17:52.785Z,170
2017-01-11T11:18:52.371Z,180
2017-01-11T11:19:52.346Z,205
2017-01-11T11:20:52.336Z,195
2017-01-11T11:21:52.309Z,200
2017-01-11T11:22:52.292Z,155
2017-01-11T11:23:52.271Z,155
2017-01-11T11:24:52.251Z,205
2017-01-11T11:25:52.232Z,165
2017-01-11T11:26:52.216Z,150
2017-01-11T11:27:52.197Z,190
2017-01-11T11:28:52.175Z,205
2017-01-11T11:29:52.156Z,220
2017-01-11T11:30:52.135Z,205
2017-01-11T11:31:52.118Z,185
2017-01-11T11:32:52.103Z,140
2017-01-11T11:33:52.478Z,155
2017-01-11T11:34:52.061Z,185
2017-01-11T11:35:52.042Z,205
2017-01-11T11:36:52.026Z,215
2017-01-11T11:37:52.006Z,230
2017-01-11T11:38:51.987Z,215
2017-01-11T11:39:51.988Z,210
2017-01-11T11:40:51.952Z,225
2017-01-11T11:41:51.938Z,230
2017-01-11T11:42:51.913Z,210
2017-01-11T11:43:51.889Z,195
2017-01-11T11:44:51.878Z,185
2017-01-11T11:45:51.856Z,175
2017-01-11T11:46:51.833Z,170
2017-01-11T11:47:51.856Z,165
2017-01-11T11:48:51.802Z,155
2017-01-11T11:49:51.780Z,150
2017-01-11T11:50:51.762Z,135
2017-01-11T11:51:51.743Z,120
2017-01-11T11:52:51.722Z,105
2017-01-11T11:53:51.704Z,95
2017-01-11T11:54:51.690Z,100
2017-01-11T11:55:51.671Z,130
2017-01-11T11:56:51.649Z,130
2017-01-11T11:57:51.632Z,130
2017-01-11T11:58:51.609Z,130
2017-01-11T11:59:51.595Z,130
2017-01-11T12:00:51.581Z,120
2017-01-11T12:01:51.554Z,115
2017-01-11T12:02:51.542Z,100
2017-01-11T12:03:51.518Z,95
2017-01-11T12:04:51.499Z,95
2017-01-11T12:05:51.501Z,90
2017-01-11T12:06:51.464Z,90
2017-01-11T12:07:51.443Z,90
2017-01-11T12:08:51.423Z,90
2017-01-11T12:09:51.405Z,95
2017-01-11T12:10:51.390Z,100
2017-01-11T12:11:51.369Z,110
2017-01-11T12:12:51.347Z,115
2017-01-11T12:13:51.326Z,120
2017-01-11T12:14:51.309Z,125
2017-01-11T12:15:51.292Z,135
2017-01-11T12:16:51.271Z,135
2017-01-11T12:17:51.255Z,130
2017-01-11T12:18:51.234Z,130
2017-01-11T12:19:51.215Z,130
2017-01-11T12:20:51.203Z,130
2017-01-11T12:21:51.182Z,130
2017-01-11T12:22:51.161Z,125
2017-01-11T12:23:51.138Z,125
2017-01-11T12:24:51.119Z,130
2017-01-11T12:25:51.110Z,130
2017-01-11T12:26:51.098Z,125
2017-01-11T12:27:51.066Z,120
2017-01-11T12:28:51.050Z,115
2017-01-11T12:29:51.028Z,120
2017-01-11T12:30:51.017Z,115
2017-01-11T12:31:51.015Z,110
2017-01-11T12:32:50.970Z,110
2017-01-11T12:33:50.978Z,110
2017-01-11T12:34:51.333Z,115
2017-01-11T12:35:50.911Z,120
2017-01-11T12:36:50.901Z,120
2017-01-11T12:37:50.889Z,125
2017-01-11T12:38:50.855Z,130
2017-01-11T12:39:50.838Z,140
2017-01-11T12:40:50.824Z,140
2017-01-11T12:41:50.817Z,145
2017-01-11T12:42:50.781Z,145
2017-01-11T12:43:50.759Z,145
2017-01-11T12:44:50.744Z,145
2017-01-11T12:45:50.730Z,145
2017-01-11T12:46:50.711Z,160
2017-01-11T12:47:50.691Z,160
2017-01-11T12:48:50.672Z,160
2017-01-11T12:49:50.662Z,165
2017-01-11T12:50:50.636Z,200
2017-01-11T12:51:50.622Z,220
2017-01-11T12:52:50.595Z,210
2017-01-11T12:53:50.985Z,210
2017-01-11T12:54:50.560Z,185
2017-01-11T12:55:50.542Z,160
2017-01-11T12:56:50.522Z,140
2017-01-11T12:57:50.501Z,125
2017-01-11T12:58:50.484Z,120
2017-01-11T12:59:50.471Z,115
2017-01-11T13:00:50.449Z,115
2017-01-11T13:01:50.437Z,110
2017-01-11T13:02:50.408Z,110
2017-01-11T13:03:50.802Z,105
2017-01-11T13:04:50.773Z,100
2017-01-11T13:05:50.356Z,100
2017-01-11T13:06:50.362Z,95
2017-01-11T13:07:50.718Z,90
2017-01-11T13:08:50.303Z,85
2017-01-11T13:09:50.281Z,85
2017-01-11T13:10:50.262Z,85
2017-01-11T13:11:50.244Z,90
2017-01-11T13:12:50.251Z,95
2017-01-11T13:13:50.209Z,100
2017-01-11T13:14:50.191Z,100
2017-01-11T13:15:50.173Z,105
2017-01-11T13:16:50.159Z,110
2017-01-11T13:17:50.139Z,115
2017-01-11T13:18:50.118Z,120
2017-01-11T13:19:50.102Z,125
2017-01-11T13:20:50.092Z,135
2017-01-11T13:21:50.063Z,145
2017-01-11T13:22:50.049Z,160
2017-01-11T13:23:50.025Z,170
2017-01-11T13:24:50.007Z,165
2017-01-11T13:25:49.983Z,155
2017-01-11T13:26:49.972Z,140
2017-01-11T13:27:49.955Z,125
2017-01-11T13:28:49.931Z,110
2017-01-11T13:29:49.911Z,95
2017-01-11T13:30:49.894Z,90
2017-01-11T13:31:49.882Z,90
2017-01-11T13:32:49.856Z,90
2017-01-11T13:33:49.849Z,90
2017-01-11T13:34:49.831Z,95
2017-01-11T13:35:49.803Z,100
2017-01-11T13:36:49.785Z,105
2017-01-11T13:37:49.774Z,100
2017-01-11T13:38:49.749Z,100
2017-01-11T13:39:49.738Z,100
2017-01-11T13:40:49.717Z,95
2017-01-11T13:41:49.691Z,90
2017-01-11T13:42:49.675Z,90
2017-01-11T13:43:50.060Z,95
2017-01-11T13:44:49.637Z,100
2017-01-11T13:45:49.623Z,100
2017-01-11T13:46:49.597Z,100
2017-01-11T13:47:49.579Z,100
2017-01-11T13:48:49.578Z,95
2017-01-11T13:49:49.544Z,90
2017-01-11T13:50:49.521Z,85
2017-01-11T13:51:49.510Z,80
2017-01-11T13:52:49.492Z,75
2017-01-11T13:53:49.470Z,70
2017-01-11T13:54:49.451Z,65
2017-01-11T13:55:49.473Z,60
2017-01-11T13:56:49.419Z,50
2017-01-11T13:57:49.394Z,45
2017-01-11T13:58:49.378Z,40
2017-01-11T13:59:49.374Z,40
2017-01-11T14:00:49.341Z,45
2017-01-11T14:01:49.321Z,50
2017-01-11T14:02:49.304Z,55
2017-01-11T14:03:49.282Z,55
2017-01-11T14:04:49.271Z,55
2017-01-11T14:05:49.254Z,45
2017-01-11T14:06:49.234Z,35
2017-01-11T14:07:49.215Z,30
2017-01-11T14:08:49.200Z,30
2017-01-11T14:09:49.178Z,25
2017-01-11T14:10:49.161Z,25
2017-01-11T14:11:49.133Z,25
2017-01-11T14:12:49.115Z,25
2017-01-11T14:13:49.097Z,25
2017-01-11T14:14:49.079Z,20
2017-01-11T14:15:49.057Z,20
2017-01-11T14:16:49.043Z,20
2017-01-11T14:17:49.025Z,20
2017-01-11T14:18:49.000Z,20
2017-01-11T14:19:49.012Z,20